Terminal Aerodrome Forecast
Issued by NWS

Home | Current Version | Previous Version | Text Only | Print | Product List | Glossary On
Versions: 1 2 3 4 5 6 7 8 9 10 11 12 13 14 15 16 17 18 19 20 21 22 23 24 25 26 27 28 29 30 31 32 33 34 35 36 37
000
FTUS42 KJAX 191600 AAB
TAFVQQ
TAF AMD
KVQQ 191637Z 1917/2012 08005KT P6SM BKN025
     FM191700 VRB15KT P6SM -SHRA VCTS OVC035CB
      TEMPO 1920/1924 3SM TSRA OVC025CB
     FM200400 07003KT P6SM VCSH BKN040 BKN250
      TEMPO 2009/2011 4SM BR=

USA.gov is the U.S. government's official web portal to all federal, state and local government web resources and services.